Overview Statistics Trail Chart Weather Telemetry Raw packets
 

This is the latest recevied weather packets stored in our database for station/object KO4YAW. If no packets are shown the sender has not sent any weather packets the latest 10 day(s).

<< 1 2 3 4 5 6 >>
Time Temp. Humidity Pressure Rain* Wind** Luminosity Snow
1788627965 29.44° C 26% 1019.8 hPa 0 mm - 585 W/m² -
1788627065 28.33° C 28% 1020.1 hPa 0 mm - 68 W/m² -
1788626165 28.33° C 29% 1020.2 hPa 0 mm - 75 W/m² -
1788625265 27.22° C 32% 1019.8 hPa 0 mm - 782 W/m² -
1788624365 26.67° C 33% 1019.8 hPa 0 mm - 662 W/m² -
1788623465 26.11° C 35% 1019.8 hPa 0 mm - 384 W/m² -
1788622565 24.44° C 37% 1019.9 hPa 0 mm - 98 W/m² -
1788621665 23.89° C 37% 1019.8 hPa 0 mm - 67 W/m² -
1788620765 23.33° C 39% 1019.8 hPa 0 mm - 96 W/m² -
1788619865 23.33° C 40% 1019.8 hPa 0 mm - 103 W/m² -
1788618994 22.22° C 43% 1019.8 hPa 0 mm - 60 W/m² -
1788618065 21.67° C 45% 1019.8 hPa 0 mm - 41 W/m² -
1788617165 20.56° C 48% 1019.7 hPa 0 mm - 40 W/m² -
1788616265 19.44° C 51% 1019.6 hPa 0 mm - 87 W/m² -
1788615365 18.89° C 55% 1019.6 hPa 0 mm - 34 W/m² -
1788614465 18.33° C 57% 1019.5 hPa 0 mm - 64 W/m² -
1788613565 18.33° C 59% 1019.3 hPa 0 mm - 41 W/m² -
1788612665 17.78° C 60% 1019.2 hPa 0 mm - 14 W/m² -
1788611765 17.78° C 62% 1019.1 hPa 0 mm - 5 W/m² -
1788610865 17.78° C 62% 1019 hPa 0 mm - 1 W/m² -
1788609965 18.33° C 61% 1018.9 hPa 0 mm - 0 W/m² -
1788609065 18.89° C 60% 1018.8 hPa 0 mm - 0 W/m² -
1788608165 19.44° C 59% 1018.8 hPa 0 mm - 0 W/m² -
1788607265 19.44° C 58% 1018.8 hPa 0 mm - 0 W/m² -
1788606365 19.44° C 58% 1018.8 hPa 0 mm - 0 W/m² -

* Rain since midnight (hover to see other rain measurements)
** Current wind speed in m/s (hover to see current wind gust speed)